createdAt,value
2019-04-29T00:01:35.467Z,15.17
2019-04-29T00:04:06.067Z,19.67
2019-04-29T00:06:36.731Z,14.93
2019-04-29T00:09:10.804Z,28.83
2019-04-29T00:11:41.040Z,12.23
2019-04-29T00:14:11.368Z,16.37
2019-04-29T00:16:53.757Z,14.87
2019-04-29T00:19:36.095Z,21.10
2019-04-29T00:22:05.584Z,17.47
2019-04-29T00:24:36.264Z,32.30
2019-04-29T00:27:06.746Z,13.83
2019-04-29T00:29:37.246Z,15.43
2019-04-29T00:32:08.216Z,18.80
2019-04-29T00:34:38.604Z,26.20
2019-04-29T00:37:16.444Z,26.70
2019-04-29T00:40:04.516Z,18.33
2019-04-29T00:42:53.955Z,22.00
2019-04-29T00:45:26.883Z,16.47
2019-04-29T00:47:57.313Z,13.50
2019-04-29T00:50:27.783Z,26.10
2019-04-29T00:52:58.211Z,20.72
2019-04-29T00:55:30.381Z,19.00
2019-04-29T00:58:01.054Z,14.98
2019-04-29T01:00:37.076Z,19.00
2019-04-29T01:03:08.063Z,24.37
2019-04-29T01:05:39.172Z,19.67
2019-04-29T01:08:09.654Z,21.97
2019-04-29T01:10:39.985Z,25.82
2019-04-29T01:13:10.583Z,24.75
2019-04-29T01:15:41.115Z,25.07
2019-04-29T01:18:11.721Z,17.60
2019-04-29T01:20:42.389Z,24.05
2019-04-29T01:23:13.014Z,16.37
2019-04-29T01:25:45.103Z,17.50
2019-04-29T01:28:24.322Z,21.33
2019-04-29T01:31:02.791Z,11.00
2019-04-29T01:33:33.343Z,22.73
2019-04-29T01:36:41.227Z,24.67
2019-04-29T01:39:13.657Z,27.37
2019-04-29T01:42:08.882Z,18.00
2019-04-29T01:44:42.616Z,15.48
2019-04-29T01:47:13.451Z,23.00
2019-04-29T01:49:43.953Z,18.80
2019-04-29T01:52:14.507Z,19.53
2019-04-29T01:54:44.934Z,20.20
2019-04-29T01:57:15.304Z,26.83
2019-04-29T01:59:45.882Z,21.33
2019-04-29T02:02:16.456Z,13.33
2019-04-29T02:04:46.879Z,18.92
2019-04-29T02:07:17.408Z,29.18
2019-04-29T02:10:08.806Z,17.47
2019-04-29T02:12:39.558Z,19.77
2019-04-29T02:15:10.304Z,19.33
2019-04-29T02:17:40.769Z,19.40
2019-04-29T02:20:13.183Z,17.10
2019-04-29T02:22:48.854Z,18.27
2019-04-29T02:25:24.409Z,17.12
2019-04-29T02:27:54.925Z,18.45
2019-04-29T02:30:45.378Z,18.43
2019-04-29T02:33:15.954Z,19.15
2019-04-29T02:35:46.535Z,16.75
2019-04-29T02:38:25.559Z,16.37
2019-04-29T02:41:07.176Z,27.97
2019-04-29T02:43:39.143Z,29.02
2019-04-29T02:46:09.775Z,16.07
2019-04-29T02:48:41.328Z,20.77
2019-04-29T02:51:13.688Z,22.52
2019-04-29T02:53:44.184Z,20.62
2019-04-29T02:56:14.747Z,13.03
2019-04-29T02:58:53.030Z,15.63
2019-04-29T03:01:40.997Z,18.60
2019-04-29T03:04:20.127Z,11.85
2019-04-29T03:06:51.117Z,21.60
2019-04-29T03:09:21.501Z,15.00
2019-04-29T03:11:52.106Z,15.53
2019-04-29T03:14:22.898Z,15.25
2019-04-29T03:16:53.373Z,29.70
2019-04-29T03:19:29.639Z,16.50
2019-04-29T03:22:02.706Z,20.90
2019-04-29T03:24:33.735Z,24.92
2019-04-29T03:27:04.126Z,18.87
2019-04-29T03:29:34.688Z,31.37
2019-04-29T03:32:05.221Z,23.80
2019-04-29T03:34:35.885Z,16.32
2019-04-29T03:37:06.304Z,16.47
2019-04-29T03:39:36.663Z,17.33
2019-04-29T03:42:07.606Z,17.73
2019-04-29T03:44:38.232Z,17.67
2019-04-29T03:47:08.512Z,14.50
2019-04-29T03:49:39.100Z,17.03
2019-04-29T03:52:09.936Z,23.83
2019-04-29T03:54:41.291Z,22.70
2019-04-29T03:57:13.279Z,19.75
2019-04-29T03:59:45.700Z,15.48
2019-04-29T04:02:41.425Z,16.80
2019-04-29T04:05:39.189Z,19.05
2019-04-29T04:08:22.847Z,17.67
2019-04-29T04:10:53.032Z,14.43
2019-04-29T04:13:23.422Z,18.45
2019-04-29T04:15:54.165Z,14.40
2019-04-29T04:18:28.891Z,13.20
2019-04-29T04:20:59.365Z,19.32
2019-04-29T04:23:29.527Z,15.90
2019-04-29T04:25:59.583Z,25.87
2019-04-29T04:28:29.784Z,21.10
2019-04-29T04:31:00.167Z,15.70
2019-04-29T04:33:30.313Z,21.85
2019-04-29T04:36:01.218Z,20.13
2019-04-29T04:38:31.891Z,26.53
2019-04-29T04:41:06.143Z,21.23
2019-04-29T04:43:36.535Z,21.77
2019-04-29T04:46:06.608Z,28.13
2019-04-29T04:48:37.158Z,17.20
2019-04-29T04:51:07.600Z,28.77
2019-04-29T04:53:38.114Z,27.42
2019-04-29T04:56:08.578Z,19.62
2019-04-29T04:58:38.925Z,26.93
2019-04-29T05:01:10.189Z,27.50
2019-04-29T05:03:49.394Z,21.80
2019-04-29T05:06:19.943Z,41.33
2019-04-29T05:08:50.685Z,16.27
2019-04-29T05:11:23.984Z,29.57
2019-04-29T05:13:55.990Z,26.73
2019-04-29T05:16:26.457Z,21.47
2019-04-29T05:18:57.200Z,20.10
2019-04-29T05:21:27.848Z,18.13
2019-04-29T05:23:58.620Z,16.50
2019-04-29T05:26:29.236Z,23.00
2019-04-29T05:28:59.997Z,36.17
2019-04-29T05:31:30.378Z,25.67
2019-04-29T05:34:00.973Z,25.17
2019-04-29T05:36:40.717Z,102.23
2019-04-29T05:39:14.756Z,69.50
2019-04-29T05:41:45.482Z,74.40
2019-04-29T05:44:31.305Z,74.00
2019-04-29T05:47:06.109Z,55.33
2019-04-29T05:49:48.851Z,50.60
2019-04-29T05:52:34.551Z,56.23
2019-04-29T05:55:03.294Z,63.33
2019-04-29T05:57:34.101Z,59.67
2019-04-29T06:00:06.462Z,34.67
2019-04-29T06:02:38.782Z,38.33
2019-04-29T06:05:09.990Z,34.67
2019-04-29T06:07:40.613Z,30.13
2019-04-29T06:10:13.761Z,21.67
2019-04-29T06:12:44.700Z,26.97
2019-04-29T06:15:15.456Z,25.03
2019-04-29T06:17:46.347Z,17.23
2019-04-29T06:20:20.555Z,15.80
2019-04-29T06:22:49.236Z,18.50
2019-04-29T06:25:19.802Z,17.50
2019-04-29T06:27:50.282Z,15.50
2019-04-29T06:30:20.828Z,23.57
2019-04-29T06:32:51.732Z,27.83
2019-04-29T06:35:22.275Z,22.17
2019-04-29T06:38:20.264Z,19.77
2019-04-29T06:40:52.920Z,22.70
2019-04-29T06:43:24.496Z,19.70
2019-04-29T06:45:55.080Z,18.63
2019-04-29T06:51:44.757Z,18.00
2019-04-29T06:54:15.127Z,10.93
2019-04-29T06:56:45.461Z,17.40
2019-04-29T06:59:15.626Z,20.10
2019-04-29T07:01:45.993Z,17.90
2019-04-29T07:04:17.369Z,18.33
2019-04-29T07:06:57.193Z,16.57
2019-04-29T07:09:19.384Z,23.53
2019-04-29T07:11:50.281Z,20.43
2019-04-29T07:14:22.060Z,28.40
2019-04-29T07:16:52.262Z,16.97
2019-04-29T07:19:26.380Z,22.70
2019-04-29T07:21:56.470Z,25.20
2019-04-29T07:24:26.014Z,38.27
2019-04-29T07:26:57.934Z,21.70
2019-04-29T07:29:30.777Z,16.57
2019-04-29T07:32:04.679Z,21.00
2019-04-29T07:34:33.887Z,17.97
2019-04-29T07:37:05.473Z,19.67
2019-04-29T07:39:36.189Z,25.97
2019-04-29T07:42:06.577Z,17.13
2019-04-29T07:44:54.490Z,25.07
2019-04-29T07:47:24.971Z,24.50
2019-04-29T07:49:57.524Z,24.30
2019-04-29T07:52:27.989Z,23.10
2019-04-29T07:54:58.265Z,24.40
2019-04-29T07:57:28.830Z,18.70
2019-04-29T07:59:59.202Z,19.33
2019-04-29T08:02:29.747Z,23.20
2019-04-29T08:05:00.267Z,29.00
2019-04-29T08:07:30.970Z,22.23
2019-04-29T08:10:04.014Z,16.57
2019-04-29T08:12:36.253Z,26.13
2019-04-29T08:15:08.079Z,21.47
2019-04-29T08:17:39.508Z,21.17
2019-04-29T08:20:10.107Z,20.57
2019-04-29T08:22:40.632Z,16.60
2019-04-29T08:25:11.317Z,21.47
2019-04-29T08:27:43.721Z,16.80
2019-04-29T08:30:14.208Z,21.93
2019-04-29T08:32:44.820Z,16.03
2019-04-29T08:35:15.694Z,17.87
2019-04-29T08:37:46.715Z,21.30
2019-04-29T08:40:17.410Z,14.13
2019-04-29T08:42:53.917Z,22.30
2019-04-29T08:45:42.010Z,18.37
2019-04-29T08:48:12.994Z,17.70
2019-04-29T08:50:43.429Z,19.27
2019-04-29T08:53:13.629Z,17.53
2019-04-29T08:55:44.055Z,18.43
2019-04-29T08:58:14.337Z,18.63
2019-04-29T09:00:45.633Z,24.30
2019-04-29T09:03:18.749Z,14.27
2019-04-29T09:06:04.133Z,23.00
2019-04-29T09:08:20.603Z,21.20
2019-04-29T09:10:51.364Z,21.83
2019-04-29T09:13:22.105Z,21.40
2019-04-29T09:15:52.654Z,24.40
2019-04-29T09:18:23.186Z,16.83
2019-04-29T09:20:53.599Z,23.63
2019-04-29T09:23:26.783Z,16.80
2019-04-29T09:26:18.898Z,26.20
2019-04-29T09:28:49.913Z,18.43
2019-04-29T09:31:20.704Z,18.20
2019-04-29T09:34:06.020Z,23.73
2019-04-29T09:36:28.334Z,16.70
2019-04-29T09:38:59.495Z,19.23
2019-04-29T09:41:46.063Z,21.00
2019-04-29T09:44:40.347Z,17.33
2019-04-29T09:47:11.189Z,18.50
2019-04-29T09:49:41.647Z,17.37
2019-04-29T09:52:12.307Z,16.40
2019-04-29T09:54:43.120Z,23.90
2019-04-29T09:57:13.486Z,22.93
2019-04-29T09:59:50.231Z,16.87
2019-04-29T10:02:36.016Z,19.00
2019-04-29T10:05:26.336Z,18.93
2019-04-29T10:07:56.877Z,40.80
2019-04-29T10:10:27.904Z,19.53
2019-04-29T10:12:58.487Z,15.67
2019-04-29T10:15:55.807Z,12.23
2019-04-29T10:18:49.241Z,15.10
2019-04-29T10:21:21.410Z,22.10
2019-04-29T10:24:01.487Z,16.77
2019-04-29T10:26:31.870Z,25.50
2019-04-29T10:29:08.965Z,18.03
2019-04-29T10:31:39.477Z,17.63
2019-04-29T10:34:11.251Z,22.77
2019-04-29T10:36:41.659Z,27.13
2019-04-29T10:39:47.257Z,19.90
2019-04-29T10:42:25.318Z,16.40
2019-04-29T10:45:13.885Z,14.27
2019-04-29T10:48:10.635Z,17.40
2019-04-29T10:50:47.176Z,22.70
2019-04-29T10:53:15.604Z,15.90
2019-04-29T10:55:46.909Z,17.70
2019-04-29T10:58:21.870Z,14.27
2019-04-29T11:02:01.382Z,22.43
2019-04-29T11:04:31.767Z,22.10
2019-04-29T11:07:14.440Z,14.17
2019-04-29T11:09:52.645Z,15.30
2019-04-29T11:12:23.410Z,23.27
2019-04-29T11:14:53.876Z,20.47
2019-04-29T11:17:26.356Z,18.80
2019-04-29T11:19:57.006Z,26.30
2019-04-29T11:22:34.003Z,16.70
2019-04-29T11:25:23.190Z,18.27
2019-04-29T11:27:56.236Z,22.40
2019-04-29T11:30:28.542Z,27.10
2019-04-29T11:33:21.293Z,17.80
2019-04-29T11:36:04.011Z,17.93
2019-04-29T11:38:38.208Z,18.70
2019-04-29T11:41:06.579Z,22.00
2019-04-29T11:43:39.524Z,23.10
2019-04-29T11:46:14.511Z,20.13
2019-04-29T11:48:42.654Z,19.60
2019-04-29T11:51:28.187Z,20.83
2019-04-29T11:53:58.678Z,22.87
2019-04-29T11:56:29.560Z,24.97
2019-04-29T11:59:12.451Z,16.23
2019-04-29T12:01:53.835Z,17.10
2019-04-29T12:04:35.145Z,15.50
2019-04-29T12:07:06.232Z,21.70
2019-04-29T12:09:39.690Z,19.10
2019-04-29T12:12:12.890Z,20.80
2019-04-29T12:14:54.078Z,14.83
2019-04-29T12:17:31.909Z,14.67
2019-04-29T12:20:10.560Z,22.70
2019-04-29T12:22:48.586Z,20.47
2019-04-29T12:25:15.005Z,18.37
2019-04-29T12:27:45.909Z,16.93
2019-04-29T12:30:18.468Z,24.53
2019-04-29T12:33:04.117Z,24.83
2019-04-29T12:35:51.105Z,17.97
2019-04-29T12:38:39.630Z,16.63
2019-04-29T12:41:25.471Z,15.07
2019-04-29T12:43:59.560Z,14.83
2019-04-29T12:46:35.817Z,15.77
2019-04-29T12:49:08.656Z,18.53
2019-04-29T12:51:37.893Z,21.20
2019-04-29T12:54:08.582Z,20.37
2019-04-29T12:56:43.163Z,16.97
2019-04-29T12:59:12.545Z,16.17
2019-04-29T13:02:08.481Z,19.20
2019-04-29T13:05:00.639Z,17.97
2019-04-29T13:07:42.939Z,17.90
2019-04-29T13:10:30.642Z,21.40
2019-04-29T13:13:00.702Z,43.53
2019-04-29T13:16:05.103Z,16.80
2019-04-29T13:18:40.521Z,20.77
2019-04-29T13:21:11.033Z,12.97
2019-04-29T13:23:59.057Z,16.97
2019-04-29T13:26:27.101Z,19.43
2019-04-29T13:28:59.010Z,16.27
2019-04-29T13:31:20.270Z,17.17
2019-04-29T13:33:52.898Z,21.80
2019-04-29T13:36:25.927Z,17.70
2019-04-29T13:38:55.675Z,14.57
2019-04-29T13:41:26.247Z,15.10
2019-04-29T13:44:05.020Z,14.10
2019-04-29T13:46:56.308Z,19.37
2019-04-29T13:49:35.209Z,15.73
2019-04-29T13:52:05.873Z,11.53
2019-04-29T13:54:37.345Z,23.60
2019-04-29T13:57:15.323Z,20.53
2019-04-29T13:59:59.400Z,17.43
2019-04-29T14:02:36.827Z,14.87
2019-04-29T14:05:07.977Z,15.87
2019-04-29T14:07:39.571Z,25.73
2019-04-29T14:10:14.823Z,16.43
2019-04-29T14:12:48.503Z,11.97
2019-04-29T14:15:16.310Z,18.20
2019-04-29T14:17:46.941Z,22.30
2019-04-29T14:20:17.942Z,13.80
2019-04-29T14:22:49.440Z,16.77
2019-04-29T14:25:20.164Z,18.40
2019-04-29T14:27:50.599Z,16.63
2019-04-29T14:30:21.877Z,17.77
2019-04-29T14:32:55.821Z,20.87
2019-04-29T14:35:54.124Z,12.20
2019-04-29T14:38:24.849Z,17.03
2019-04-29T14:40:55.520Z,17.27
2019-04-29T14:43:54.990Z,13.60
2019-04-29T14:46:48.670Z,14.43
2019-04-29T14:49:35.414Z,19.43
2019-04-29T14:52:08.312Z,10.83
2019-04-29T14:54:36.953Z,15.23
2019-04-29T14:57:09.287Z,12.20
2019-04-29T14:59:39.920Z,12.90
2019-04-29T15:02:22.616Z,27.20
2019-04-29T15:04:53.513Z,21.63
2019-04-29T15:07:24.075Z,14.27
2019-04-29T15:09:58.389Z,13.10
2019-04-29T15:12:51.900Z,22.77
2019-04-29T15:15:38.504Z,11.57
2019-04-29T15:18:25.590Z,16.40
2019-04-29T15:21:11.594Z,18.40
2019-04-29T15:23:42.076Z,18.10
2019-04-29T15:26:12.766Z,11.60
2019-04-29T15:28:52.754Z,17.73
2019-04-29T15:31:24.045Z,11.13
2019-04-29T15:33:54.649Z,11.43
2019-04-29T15:36:25.612Z,12.50
2019-04-29T15:39:08.707Z,13.83
2019-04-29T15:41:31.141Z,18.27
2019-04-29T15:44:07.680Z,19.20
2019-04-29T15:46:45.230Z,14.87
2019-04-29T15:49:05.322Z,15.10
2019-04-29T15:51:38.719Z,21.30
2019-04-29T15:54:14.432Z,20.63
2019-04-29T15:56:41.870Z,16.30
2019-04-29T15:59:12.767Z,15.37
2019-04-29T16:01:43.720Z,10.17
2019-04-29T16:04:21.009Z,16.80
2019-04-29T16:07:03.736Z,16.07
2019-04-29T16:12:27.016Z,15.43
2019-04-29T16:14:57.704Z,16.53
2019-04-29T16:17:31.878Z,22.73
2019-04-29T16:20:00.822Z,16.30
2019-04-29T16:22:31.240Z,28.63
2019-04-29T16:25:04.937Z,16.83
2019-04-29T16:27:34.168Z,14.90
2019-04-29T16:30:04.920Z,15.97
2019-04-29T16:32:40.396Z,14.10
2019-04-29T16:35:11.754Z,17.63
2019-04-29T16:37:42.193Z,17.10
2019-04-29T16:40:12.766Z,13.43
2019-04-29T16:43:05.531Z,17.00
2019-04-29T16:45:58.000Z,16.93
2019-04-29T16:48:28.629Z,15.27
2019-04-29T16:50:59.235Z,12.50
2019-04-29T16:53:29.686Z,18.17
2019-04-29T16:56:00.061Z,14.17
2019-04-29T16:58:30.535Z,14.10
2019-04-29T17:01:01.023Z,9.50
2019-04-29T17:03:31.522Z,17.07
2019-04-29T17:06:02.172Z,19.30
2019-04-29T17:09:02.940Z,14.33
2019-04-29T17:11:29.791Z,12.63
2019-04-29T17:16:32.396Z,21.97
2019-04-29T17:19:03.090Z,18.53
2019-04-29T17:21:33.926Z,13.63
2019-04-29T17:24:04.741Z,15.63
2019-04-29T17:26:49.452Z,20.00
2019-04-29T17:29:49.363Z,25.03
2019-04-29T17:32:42.931Z,12.43
2019-04-29T17:35:07.313Z,13.10
2019-04-29T17:35:14.558Z,12.43
2019-04-29T17:35:17.594Z,18.73
2019-04-29T17:37:39.780Z,12.80
2019-04-29T17:40:13.006Z,12.93
2019-04-29T17:42:45.498Z,12.43
2019-04-29T17:45:30.590Z,14.40
2019-04-29T17:48:18.200Z,10.90
2019-04-29T17:50:53.334Z,17.00
2019-04-29T17:53:32.659Z,16.00
2019-04-29T17:56:20.170Z,8.47
2019-04-29T17:58:58.406Z,11.20
2019-04-29T18:01:47.979Z,14.07
2019-04-29T18:04:36.190Z,18.23
2019-04-29T18:07:40.522Z,14.03
2019-04-29T18:10:24.330Z,12.37
2019-04-29T18:12:54.970Z,13.37
2019-04-29T18:15:40.378Z,11.70
2019-04-29T18:18:07.380Z,21.07
2019-04-29T18:21:03.281Z,12.00
2019-04-29T18:24:07.998Z,10.13
2019-04-29T18:26:47.992Z,11.80
2019-04-29T18:29:16.683Z,13.40
2019-04-29T18:31:48.182Z,15.23
2019-04-29T18:34:19.994Z,10.33
2019-04-29T18:36:54.564Z,14.77
2019-04-29T18:39:28.581Z,10.07
2019-04-29T18:41:58.800Z,23.50
2019-04-29T18:44:30.364Z,4.03
2019-04-29T18:47:01.030Z,7.00
2019-04-29T18:49:31.428Z,8.10
2019-04-29T18:52:03.767Z,6.00
2019-04-29T18:54:35.747Z,5.00
2019-04-29T18:57:06.393Z,9.63
2019-04-29T18:59:37.676Z,7.77
2019-04-29T19:02:09.506Z,2.80
2019-04-29T19:04:53.519Z,6.07
2019-04-29T19:07:53.138Z,6.53
2019-04-29T19:10:18.588Z,4.60
2019-04-29T19:12:59.553Z,4.23
2019-04-29T19:15:21.588Z,5.60
2019-04-29T19:17:59.150Z,7.43
2019-04-29T19:20:25.353Z,5.40
2019-04-29T19:23:05.687Z,4.20
2019-04-29T19:25:28.456Z,5.90
2019-04-29T19:28:11.502Z,4.03
2019-04-29T19:30:31.341Z,5.97
2019-04-29T19:33:02.017Z,5.07
2019-04-29T19:35:38.564Z,3.10
2019-04-29T19:38:12.357Z,4.17
2019-04-29T19:40:42.532Z,3.90
2019-04-29T19:43:17.371Z,3.43
2019-04-29T19:45:48.992Z,8.10
2019-04-29T19:48:22.570Z,7.83
2019-04-29T19:51:13.867Z,8.83
2019-04-29T19:53:42.173Z,7.37
2019-04-29T19:56:12.590Z,3.00
2019-04-29T19:58:42.522Z,8.90
2019-04-29T20:01:26.291Z,2.53
2019-04-29T20:04:01.195Z,6.53
2019-04-29T20:06:33.638Z,3.97
2019-04-29T20:09:16.514Z,6.33
2019-04-29T20:11:41.163Z,5.37
2019-04-29T20:14:19.006Z,5.20
2019-04-29T20:17:09.665Z,4.80
2019-04-29T20:19:41.797Z,4.93
2019-04-29T20:22:13.161Z,7.20
2019-04-29T20:24:49.762Z,4.60
2019-04-29T20:27:15.948Z,6.10
2019-04-29T20:29:46.547Z,3.23
2019-04-29T20:32:17.526Z,179.27
2019-04-29T20:34:48.080Z,254.23
2019-04-29T20:37:19.909Z,82.50
2019-04-29T20:39:56.173Z,14.73
2019-04-29T20:42:26.004Z,8.20
2019-04-29T20:44:56.802Z,7.10
2019-04-29T20:47:37.507Z,6.10
2019-04-29T20:49:59.700Z,8.23
2019-04-29T20:52:37.572Z,11.93
2019-04-29T20:55:09.304Z,5.33
2019-04-29T20:57:40.120Z,4.83
2019-04-29T21:00:11.912Z,3.70
2019-04-29T21:02:42.904Z,7.73
2019-04-29T21:05:22.316Z,7.17
2019-04-29T21:07:45.948Z,7.83
2019-04-29T21:10:16.630Z,9.80
2019-04-29T21:12:59.515Z,9.13
2019-04-29T21:15:36.201Z,6.43
2019-04-29T21:18:10.331Z,4.83
2019-04-29T21:20:39.262Z,9.93
2019-04-29T21:23:09.649Z,8.00
2019-04-29T21:25:40.374Z,8.63
2019-04-29T21:28:12.092Z,7.33
2019-04-29T21:30:42.850Z,5.83
2019-04-29T21:33:19.994Z,11.60
2019-04-29T21:35:56.536Z,8.03
2019-04-29T21:38:48.572Z,7.43
2019-04-29T21:41:27.453Z,9.27
2019-04-29T21:44:01.711Z,10.83
2019-04-29T21:46:32.117Z,8.40
2019-04-29T21:49:06.764Z,9.83
2019-04-29T21:51:35.489Z,14.67
2019-04-29T21:54:09.644Z,12.47
2019-04-29T21:56:39.787Z,9.83
2019-04-29T21:59:12.269Z,13.00
2019-04-29T22:01:51.693Z,15.03
2019-04-29T22:04:22.191Z,9.53
2019-04-29T22:06:52.695Z,7.50
2019-04-29T22:09:35.299Z,13.93
2019-04-29T22:11:57.046Z,8.27
2019-04-29T22:14:28.746Z,9.57
2019-04-29T22:16:59.282Z,10.27
2019-04-29T22:19:29.921Z,7.97
2019-04-29T22:22:01.676Z,6.40
2019-04-29T22:24:32.760Z,6.10
2019-04-29T22:27:05.205Z,12.60
2019-04-29T22:29:37.462Z,12.27
2019-04-29T22:32:14.472Z,10.30
2019-04-29T22:34:40.502Z,7.83
2019-04-29T22:37:10.871Z,12.67
2019-04-29T22:39:41.473Z,6.43
2019-04-29T22:42:31.707Z,9.57
2019-04-29T22:45:02.729Z,6.77
2019-04-29T22:47:33.189Z,5.80
2019-04-29T22:50:04.511Z,9.23
2019-04-29T22:52:36.844Z,10.40
2019-04-29T22:55:08.048Z,13.97
2019-04-29T22:57:38.767Z,11.17
2019-04-29T23:00:11.232Z,8.10
2019-04-29T23:02:41.984Z,11.53
2019-04-29T23:05:13.062Z,8.57
2019-04-29T23:07:45.520Z,9.00
2019-04-29T23:10:18.121Z,12.13
2019-04-29T23:12:49.219Z,8.27
2019-04-29T23:15:23.575Z,10.00
2019-04-29T23:17:52.164Z,11.27
2019-04-29T23:21:04.021Z,10.40
2019-04-29T23:23:38.126Z,9.57
2019-04-29T23:26:08.823Z,13.47
2019-04-29T23:28:39.406Z,9.10
2019-04-29T23:31:09.834Z,12.90
2019-04-29T23:33:40.520Z,9.33
2019-04-29T23:36:14.247Z,9.40
2019-04-29T23:38:44.114Z,8.80
2019-04-29T23:41:15.339Z,14.10
2019-04-29T23:43:45.979Z,11.50
2019-04-29T23:46:16.513Z,14.40
2019-04-29T23:48:47.496Z,9.10
2019-04-29T23:51:18.156Z,10.80
2019-04-29T23:53:48.770Z,12.10
2019-04-29T23:56:20.837Z,12.50
2019-04-29T23:58:59.328Z,8.63
